Time;durP1;ratioP1;P1;durP2;ratioP2;P2;SDS_P1;SDS_P2;PMS_P1;PMS_P2;Temp;Humidity;BMP_temperature;BMP_pressure;BME280_temperature;BME280_humidity;BME280_pressure;Samples;Min_cycle;Max_cycle;Signal;HPM_P1;HPM_P2
2022/03/20 00:00:24;;;;;;;0.10;0.10;;;;;;;20.58;35.08;102837.25;5083202;28;20134;-32
2022/03/20 00:02:50;;;;;;;0.13;0.13;;;;;;;20.57;34.80;102825.34;5103219;28;20096;-32
2022/03/20 00:05:17;;;;;;;0.20;0.20;;;;;;;20.59;35.04;102822.31;5107558;28;20040;-32
2022/03/20 00:07:44;;;;;;;0.20;0.20;;;;;;;20.58;34.79;102817.88;5107618;28;20063;-34
2022/03/20 00:10:10;;;;;;;0.20;0.20;;;;;;;20.58;35.09;102820.66;5087303;28;20080;-32
2022/03/20 00:12:37;;;;;;;0.20;0.20;;;;;;;20.59;34.90;102814.84;5097795;28;20707;-31
2022/03/20 00:15:03;;;;;;;0.20;0.20;;;;;;;20.59;34.80;102814.00;5103969;28;20383;-32
2022/03/20 00:17:29;;;;;;;0.20;0.20;;;;;;;20.59;35.18;102812.09;5106438;28;20063;-33
2022/03/20 00:19:55;;;;;;;0.17;0.17;;;;;;;20.59;34.89;102802.94;5099273;28;20088;-34
2022/03/20 00:22:21;;;;;;;0.20;0.20;;;;;;;20.58;34.73;102801.28;5081493;28;20087;-32
2022/03/20 00:24:47;;;;;;;0.20;0.20;;;;;;;20.59;34.78;102792.72;5106693;28;20048;-33
2022/03/20 00:27:14;;;;;;;0.20;0.20;;;;;;;20.60;35.06;102790.81;5104132;28;20793;-31
2022/03/20 00:29:40;;;;;;;0.20;0.20;;;;;;;20.59;34.87;102778.88;5088230;28;20035;-31
2022/03/20 00:32:06;;;;;;;0.20;0.20;;;;;;;20.58;34.98;102785.50;5099233;28;20055;-33
2022/03/20 00:34:32;;;;;;;0.20;0.20;;;;;;;20.58;35.00;102788.25;5090572;28;20082;-32
2022/03/20 00:36:58;;;;;;;0.10;0.10;;;;;;;20.59;34.75;102775.25;5089462;28;20043;-34
2022/03/20 00:39:24;;;;;;;0.20;0.20;;;;;;;20.57;34.74;102774.69;5090854;28;20058;-31
2022/03/20 00:41:49;;;;;;;0.20;0.20;;;;;;;20.58;34.85;102766.13;5107313;28;21275;-32
2022/03/20 00:44:15;;;;;;;0.20;0.20;;;;;;;20.59;34.87;102766.97;5100216;28;20062;-31
2022/03/20 00:46:41;;;;;;;0.20;0.20;;;;;;;20.57;35.14;102758.91;5109638;28;20047;-31
2022/03/20 00:49:07;;;;;;;0.15;0.15;;;;;;;20.59;35.07;102755.88;5105725;28;20512;-38
2022/03/20 00:51:33;;;;;;;0.10;0.10;;;;;;;20.59;34.90;102759.50;5100005;28;20051;-32
2022/03/20 00:53:59;;;;;;;0.10;0.10;;;;;;;20.58;34.94;102755.06;5087421;28;20071;-32
2022/03/20 00:56:25;;;;;;;0.15;0.15;;;;;;;20.58;34.87;102751.44;5105510;28;20449;-31
2022/03/20 00:58:51;;;;;;;0.20;0.20;;;;;;;20.60;35.13;102749.28;5082106;28;20082;-31
2022/03/20 01:01:17;;;;;;;0.17;0.17;;;;;;;20.58;35.00;102743.16;5083953;28;20074;-31
2022/03/20 01:03:44;;;;;;;0.20;0.20;;;;;;;20.57;35.17;102731.22;5085568;28;20044;-31
2022/03/20 01:06:10;;;;;;;0.20;0.20;;;;;;;20.59;34.99;102731.81;5109966;28;20089;-32
2022/03/20 01:08:38;;;;;;;0.15;0.15;;;;;;;20.58;34.95;102727.38;5102110;28;20063;-34
2022/03/20 01:11:04;;;;;;;0.10;0.10;;;;;;;20.59;34.86;102728.22;5091005;28;20135;-32
2022/03/20 01:13:30;;;;;;;0.20;0.20;;;;;;;20.59;34.74;102728.22;5105100;28;20067;-31
2022/03/20 01:15:57;;;;;;;0.30;0.30;;;;;;;20.59;34.98;102729.03;5102307;28;20040;-33
2022/03/20 01:18:24;;;;;;;0.20;0.20;;;;;;;20.59;34.81;102719.91;5086044;28;20050;-32
2022/03/20 01:20:51;;;;;;;0.20;0.20;;;;;;;20.58;34.91;102716.28;5101494;28;20481;-30
2022/03/20 01:23:17;;;;;;;0.20;0.20;;;;;;;20.58;35.07;102712.69;5101663;28;20461;-31
2022/03/20 01:25:42;;;;;;;0.20;0.20;;;;;;;20.59;34.95;102711.59;5106538;28;20043;-32
2022/03/20 01:28:08;;;;;;;0.20;0.20;;;;;;;20.58;34.74;102705.22;5107485;28;20383;-34
2022/03/20 01:30:34;;;;;;;0.13;0.13;;;;;;;20.58;34.99;102699.69;5087778;28;20079;-32
2022/03/20 01:33:01;;;;;;;0.20;0.20;;;;;;;20.58;35.09;102698.84;5103608;28;20048;-31
2022/03/20 01:35:27;;;;;;;0.20;0.20;;;;;;;20.58;34.81;102691.38;5108211;28;20133;-31
2022/03/20 01:37:53;;;;;;;0.20;0.20;;;;;;;20.59;34.93;102679.22;5108337;28;20051;-32
2022/03/20 01:40:19;;;;;;;0.20;0.20;;;;;;;20.58;35.23;102677.53;5108126;28;20052;-31
2022/03/20 01:42:44;;;;;;;0.20;0.20;;;;;;;20.58;34.97;102672.00;5104793;28;20508;-32
2022/03/20 01:45:16;;;;;;;0.20;0.20;;;;;;;20.59;34.86;102679.22;5112177;28;20052;-33
2022/03/20 01:47:41;;;;;;;0.10;0.10;;;;;;;20.58;35.00;102683.09;5109014;28;20488;-31
2022/03/20 01:50:07;;;;;;;0.20;0.20;;;;;;;20.58;35.18;102672.00;5107837;28;20051;-33
2022/03/20 01:52:33;;;;;;;0.10;0.10;;;;;;;20.59;34.88;102670.06;5102249;28;20136;-31
2022/03/20 01:55:01;;;;;;;0.10;0.10;;;;;;;20.57;35.00;102670.34;5113565;28;20632;-32
2022/03/20 01:57:29;;;;;;;0.10;0.10;;;;;;;20.58;34.95;102660.94;5088790;28;20083;-31
2022/03/20 01:59:54;;;;;;;0.10;0.10;;;;;;;20.59;34.95;102646.00;5107182;28;20075;-31
2022/03/20 02:02:22;;;;;;;0.20;0.20;;;;;;;20.58;35.15;102654.56;5107179;28;20047;-31
2022/03/20 02:04:47;;;;;;;0.20;0.20;;;;;;;20.57;35.23;102652.91;5105413;28;20596;-32
2022/03/20 02:07:13;;;;;;;0.10;0.10;;;;;;;20.58;34.90;102655.41;5090206;28;20213;-31
2022/03/20 02:09:41;;;;;;;0.20;0.20;;;;;;;20.58;35.15;102643.50;5094754;28;20039;-32
2022/03/20 02:12:07;;;;;;;0.20;0.20;;;;;;;20.57;35.20;102639.88;5106490;28;20497;-31
2022/03/20 02:14:33;;;;;;;0.20;0.20;;;;;;;20.58;34.92;102635.19;5107218;28;20065;-33
2022/03/20 02:17:00;;;;;;;0.20;0.20;;;;;;;20.58;34.86;102629.66;5107537;28;20075;-32
2022/03/20 02:19:27;;;;;;;0.10;0.10;;;;;;;20.57;34.96;102627.97;5112400;28;20073;-30
2022/03/20 02:21:52;;;;;;;0.17;0.17;;;;;;;20.57;34.97;102626.06;5109506;28;20062;-35
2022/03/20 02:24:40;;;;;;;0.20;0.20;;;;;;;20.58;34.97;102624.13;5111295;28;20446;-32
2022/03/20 02:29:47;;;;;;;0.20;0.20;;;;;;;20.58;35.11;102615.81;5158408;27;20197;-29
2022/03/20 02:32:15;;;;;;;0.20;0.20;;;;;;;20.58;35.20;102613.88;5159920;27;20062;-29
2022/03/20 02:34:41;;;;;;;0.20;0.20;;;;;;;20.58;34.90;102607.50;5140588;27;20585;-29
2022/03/20 02:37:08;;;;;;;0.20;0.20;;;;;;;20.58;35.23;102596.44;5160378;27;20073;-30
2022/03/20 02:39:34;;;;;;;0.20;0.20;;;;;;;20.57;35.07;102595.59;5158978;27;20082;-29
2022/03/20 02:42:03;;;;;;;0.20;0.20;;;;;;;20.57;35.07;102581.75;5160911;27;20610;-30
2022/03/20 02:44:51;;;;;;;0.20;0.20;;;;;;;20.58;34.92;102588.13;5141622;27;20038;-31
2022/03/20 02:47:20;;;;;;;0.20;0.20;;;;;;;20.57;35.05;102587.28;5143083;27;20129;-29
2022/03/20 02:49:49;;;;;;;0.20;0.20;;;;;;;20.57;34.96;102579.00;5156884;27;20081;-29
2022/03/20 02:52:14;;;;;;;0.15;0.15;;;;;;;20.57;35.25;102584.53;5142453;27;20089;-29
2022/03/20 02:54:40;;;;;;;0.17;0.17;;;;;;;20.58;34.99;102577.91;5160340;27;20039;-29
2022/03/20 02:57:08;;;;;;;0.20;0.20;;;;;;;20.58;34.91;102586.19;5160330;27;20038;-30
2022/03/20 02:59:34;;;;;;;0.10;0.10;;;;;;;20.58;35.15;102571.53;5162121;27;20473;-29
2022/03/20 03:02:02;;;;;;;0.20;0.20;;;;;;;20.58;34.95;102571.53;5161267;27;20043;-30
2022/03/20 03:04:28;;;;;;;0.20;0.20;;;;;;;20.59;35.26;102585.09;5143064;27;20192;-28
2022/03/20 03:06:53;;;;;;;0.20;0.20;;;;;;;20.58;35.13;102574.28;5163648;27;20050;-30
2022/03/20 03:12:05;;;;;;;0.20;0.20;;;;;;;20.58;35.06;102564.06;5143813;27;20042;-29
2022/03/20 03:17:27;;;;;;;0.20;0.20;;;;;;;20.57;35.21;102554.09;5142580;27;20517;-31
2022/03/20 03:19:55;;;;;;;0.20;0.20;;;;;;;20.58;35.31;102549.38;5157091;27;20070;-34
2022/03/20 03:22:21;;;;;;;0.20;0.20;;;;;;;20.57;34.99;102544.94;5156778;27;20039;-34
2022/03/20 03:24:46;;;;;;;0.20;0.20;;;;;;;20.58;35.07;102544.69;5158749;27;20065;-31
2022/03/20 03:27:12;;;;;;;0.20;0.20;;;;;;;20.57;35.08;102542.19;5159543;27;20058;-30
2022/03/20 03:29:38;;;;;;;0.20;0.20;;;;;;;20.58;35.06;102552.16;5156864;27;20038;-32
2022/03/20 03:32:05;;;;;;;0.20;0.20;;;;;;;20.58;34.92;102544.69;5160894;27;20046;-34
2022/03/20 03:37:20;;;;;;;0.10;0.10;;;;;;;20.57;35.08;102533.88;5117777;27;20549;-31
2022/03/20 03:39:46;;;;;;;0.20;0.20;;;;;;;20.57;34.92;102540.25;5131845;27;20047;-31
2022/03/20 03:42:12;;;;;;;0.20;0.20;;;;;;;20.58;35.14;102535.53;5108402;28;20130;-33
2022/03/20 03:44:39;;;;;;;0.10;0.10;;;;;;;20.57;35.25;102526.41;5124916;28;20066;-32
2022/03/20 03:47:05;;;;;;;0.15;0.15;;;;;;;20.57;34.95;102523.63;5121696;28;20505;-31
2022/03/20 03:49:30;;;;;;;0.20;0.20;;;;;;;20.56;35.24;102523.91;5123622;28;20134;-32
2022/03/20 03:51:56;;;;;;;0.20;0.20;;;;;;;20.57;35.16;102518.09;5120972;28;20042;-31
2022/03/20 03:54:22;;;;;;;0.20;0.20;;;;;;;20.58;34.94;102521.69;5124731;28;20039;-32
2022/03/20 03:56:48;;;;;;;0.20;0.20;;;;;;;20.57;35.19;102512.56;5125874;28;20074;-32
2022/03/20 03:59:13;;;;;;;0.20;0.20;;;;;;;20.57;35.21;102507.03;5129068;28;20102;-31
2022/03/20 04:01:40;;;;;;;0.20;0.20;;;;;;;20.58;34.97;102505.09;5128677;28;20039;-32
2022/03/20 04:04:05;;;;;;;0.20;0.20;;;;;;;20.57;35.03;102487.66;5123607;28;20515;-32
2022/03/20 04:06:32;;;;;;;0.20;0.20;;;;;;;20.58;35.04;102488.50;5124099;28;20059;-31
2022/03/20 04:08:58;;;;;;;0.20;0.20;;;;;;;20.57;34.96;102482.13;5123294;28;20078;-32
2022/03/20 04:11:23;;;;;;;0.20;0.20;;;;;;;20.57;35.11;102475.75;5122738;28;20055;-31
2022/03/20 04:13:49;;;;;;;0.35;0.35;;;;;;;20.57;35.08;102481.28;5125087;28;20047;-31
2022/03/20 04:16:15;;;;;;;0.20;0.20;;;;;;;20.57;34.86;102468.28;5122439;28;20076;-32
2022/03/20 04:18:41;;;;;;;0.20;0.20;;;;;;;20.56;35.01;102465.78;5126541;28;20079;-32
2022/03/20 04:21:07;;;;;;;0.20;0.20;;;;;;;20.56;35.29;102460.25;5120948;28;20039;-32
2022/03/20 04:23:49;;;;;;;0.20;0.20;;;;;;;20.56;35.25;102460.25;5120108;28;20451;-31
2022/03/20 04:26:17;;;;;;;0.20;0.20;;;;;;;20.57;34.90;102461.91;5123570;28;20094;-31
2022/03/20 04:28:44;;;;;;;;;;;;;;;20.56;34.84;102455.53;5114801;28;20081;-31
2022/03/20 04:31:15;;;;;;;0.20;0.20;;;;;;;20.56;34.92;102463.00;5122404;28;19979;-31
2022/03/20 04:33:42;;;;;;;0.22;0.20;;;;;;;20.56;35.12;102469.38;5125584;28;20126;-31
2022/03/20 04:36:09;;;;;;;0.20;0.20;;;;;;;20.54;35.06;102457.72;5123235;28;20132;-31
2022/03/20 04:38:36;;;;;;;0.20;0.20;;;;;;;20.56;35.15;102463.84;5111901;28;20082;-32
2022/03/20 04:41:03;;;;;;;0.30;0.30;;;;;;;20.56;35.07;102455.53;5112684;28;20079;-31
2022/03/20 04:43:29;;;;;;;0.20;0.20;;;;;;;20.56;35.22;102457.47;5123127;28;20678;-31
2022/03/20 04:45:54;;;;;;;0.10;0.10;;;;;;;20.56;34.87;102458.31;5116763;28;20071;-33
2022/03/20 04:59:23;;;;;;;0.20;0.20;;;;;;;20.53;35.30;102426.44;5110293;28;20092;-31
2022/03/20 05:01:50;;;;;;;0.20;0.20;;;;;;;20.55;35.05;102428.94;5122667;28;21239;-31
2022/03/20 05:04:16;;;;;;;0.20;0.20;;;;;;;20.55;35.05;102440.00;5122475;28;20101;-32
2022/03/20 05:06:43;;;;;;;0.20;0.20;;;;;;;20.57;35.16;102434.22;5115669;28;20092;-32
2022/03/20 05:14:41;;;;;;;0.20;0.20;;;;;;;20.56;35.37;102422.31;5110154;28;20078;-31
2022/03/20 05:17:08;;;;;;;0.20;0.20;;;;;;;20.54;35.32;102416.19;5121919;28;20046;-29
2022/03/20 05:19:34;;;;;;;0.20;0.20;;;;;;;20.54;34.92;102410.66;5122473;28;20469;-29
2022/03/20 05:22:01;;;;;;;0.20;0.20;;;;;;;20.54;35.18;102418.97;5115081;28;20509;-34
2022/03/20 05:24:27;;;;;;;0.20;0.20;;;;;;;20.54;35.33;102414.25;5123185;28;20085;-32
2022/03/20 05:26:53;;;;;;;0.20;0.20;;;;;;;20.55;35.15;102412.31;5120379;28;20394;-31
2022/03/20 05:29:18;;;;;;;0.20;0.20;;;;;;;20.54;34.97;102410.66;5106605;28;20481;-31
2022/03/20 05:31:46;;;;;;;0.20;0.20;;;;;;;20.53;35.04;102409.81;5124019;28;20050;-32
2022/03/20 05:34:12;;;;;;;0.20;0.20;;;;;;;20.53;35.25;102412.59;5121961;28;20075;-32
2022/03/20 05:36:38;;;;;;;0.20;0.20;;;;;;;20.53;35.19;102409.81;5121748;28;20478;-32
2022/03/20 05:39:04;;;;;;;0.20;0.20;;;;;;;20.54;35.31;102402.34;5122466;28;20078;-31
2022/03/20 05:42:01;;;;;;;0.20;0.20;;;;;;;20.54;35.06;102402.34;5118874;28;20082;-31
2022/03/20 05:44:16;;;;;;;0.20;0.20;;;;;;;20.53;35.14;102398.75;5110198;28;20746;-32
2022/03/20 05:46:44;;;;;;;0.10;0.10;;;;;;;20.52;35.02;102397.09;5094016;28;20482;-29
2022/03/20 05:49:10;;;;;;;0.20;0.20;;;;;;;20.53;35.21;102409.00;5122317;28;20079;-30
2022/03/20 05:51:37;;;;;;;0.20;0.20;;;;;;;20.55;35.03;102412.31;5119508;28;20051;-31
2022/03/20 05:54:04;;;;;;;0.20;0.20;;;;;;;20.53;35.01;102409.81;5124932;28;20550;-31
2022/03/20 05:59:15;;;;;;;0.20;0.20;;;;;;;20.53;35.27;102414.53;5108243;28;20426;-33
2022/03/20 06:01:41;;;;;;;0.20;0.20;;;;;;;20.53;35.13;102412.59;5123769;28;20075;-33
2022/03/20 06:04:08;;;;;;;0.20;0.20;;;;;;;20.54;35.13;102413.44;5124339;27;20058;-33
2022/03/20 06:06:36;;;;;;;0.20;0.20;;;;;;;20.53;35.03;102414.53;5122805;28;20078;-32
2022/03/20 06:09:02;;;;;;;0.20;0.20;;;;;;;20.52;35.10;102407.31;5122434;28;20776;-31
2022/03/20 06:11:28;;;;;;;0.20;0.20;;;;;;;20.53;35.13;102415.34;5121395;28;20306;-34
2022/03/20 06:13:54;;;;;;;0.20;0.20;;;;;;;20.53;35.17;102422.81;5122579;28;20043;-31
2022/03/20 06:16:22;;;;;;;0.20;0.20;;;;;;;20.53;35.18;102414.53;5123534;28;20099;-31
2022/03/20 06:18:49;;;;;;;0.20;0.20;;;;;;;20.53;35.30;102425.59;5121909;28;20393;-32
2022/03/20 06:21:14;;;;;;;0.20;0.20;;;;;;;20.52;35.01;102430.28;5116668;28;20132;-34
2022/03/20 06:23:40;;;;;;;0.20;0.20;;;;;;;20.53;35.31;102429.19;5122316;28;20069;-32
2022/03/20 06:26:08;;;;;;;0.20;0.20;;;;;;;20.52;34.92;102423.94;5122057;28;20243;-32
2022/03/20 06:28:34;;;;;;;0.20;0.20;;;;;;;20.51;35.09;102425.84;5109583;28;20078;-33
2022/03/20 06:31:10;;;;;;;0.20;0.20;;;;;;;20.52;35.09;102422.00;5120952;28;20051;-33
2022/03/20 06:33:54;;;;;;;0.20;0.20;;;;;;;20.52;35.15;102424.75;5118274;28;20044;-31
2022/03/20 06:36:20;;;;;;;0.20;0.20;;;;;;;20.52;34.96;102410.91;5120362;28;20047;-32
2022/03/20 06:38:46;;;;;;;0.20;0.20;;;;;;;20.52;35.01;102410.09;5119129;28;20138;-32
2022/03/20 06:41:11;;;;;;;0.20;0.20;;;;;;;20.52;35.31;102404.56;5119440;28;20039;-31
2022/03/20 06:43:38;;;;;;;0.20;0.20;;;;;;;20.52;34.97;102402.63;5118626;28;20040;-34
2022/03/20 06:46:05;;;;;;;0.20;0.20;;;;;;;20.53;35.09;102409.81;5121613;28;20161;-31
2022/03/20 06:48:50;;;;;;;0.20;0.20;;;;;;;20.52;34.91;102407.31;5118367;28;20043;-32
2022/03/20 06:51:17;;;;;;;0.17;0.17;;;;;;;20.53;35.25;102409.00;5118601;28;20083;-31
2022/03/20 06:53:42;;;;;;;0.20;0.20;;;;;;;20.52;34.95;102404.56;5123122;28;20132;-30
2022/03/20 06:56:08;;;;;;;0.20;0.20;;;;;;;20.53;35.32;102400.69;5123073;28;20043;-30
2022/03/20 06:58:35;;;;;;;0.20;0.20;;;;;;;20.53;35.21;102389.63;5122988;28;20087;-32
2022/03/20 07:01:01;;;;;;;0.20;0.20;;;;;;;20.52;35.26;102383.25;5125260;28;20079;-31
2022/03/20 07:03:27;;;;;;;0.20;0.20;;;;;;;20.52;35.03;102382.41;5124411;28;20217;-32
2022/03/20 07:05:52;;;;;;;0.20;0.20;;;;;;;20.52;35.08;102363.88;5120694;28;20092;-31
2022/03/20 07:08:18;;;;;;;0.20;0.20;;;;;;;20.52;35.18;102350.03;5122280;28;20201;-32
2022/03/20 07:10:48;;;;;;;0.20;0.20;;;;;;;20.52;35.18;102354.72;5120977;28;20047;-32
2022/03/20 07:16:00;;;;;;;0.20;0.20;;;;;;;20.51;35.35;102358.59;5109751;28;20103;-32
2022/03/20 07:18:26;;;;;;;0.20;0.20;;;;;;;20.52;35.31;102363.88;5125069;28;20659;-33
2022/03/20 07:20:54;;;;;;;0.20;0.20;;;;;;;20.51;35.26;102356.66;5125230;28;20125;-32
2022/03/20 07:23:20;;;;;;;0.20;0.20;;;;;;;20.53;34.96;102354.47;5124004;28;20132;-31
2022/03/20 07:31:17;;;;;;;0.20;0.20;;;;;;;20.51;34.99;102350.31;5110300;28;20134;-31
2022/03/20 07:33:43;;;;;;;0.20;0.20;;;;;;;20.52;35.22;102338.13;5123278;28;20092;-33
2022/03/20 07:36:10;;;;;;;0.20;0.20;;;;;;;20.52;35.01;102332.59;5106703;28;20492;-32
2022/03/20 07:38:36;;;;;;;0.20;0.20;;;;;;;20.52;35.18;102336.19;5126796;28;20063;-33
2022/03/20 07:41:02;;;;;;;0.20;0.20;;;;;;;20.52;34.94;102327.91;5125640;28;20085;-33
2022/03/20 07:43:27;;;;;;;0.20;0.20;;;;;;;20.52;35.16;102318.75;5113895;28;20152;-32
2022/03/20 07:45:53;;;;;;;0.20;0.20;;;;;;;20.51;35.19;102317.94;5122310;28;20051;-31
2022/03/20 07:48:21;;;;;;;0.20;0.20;;;;;;;20.51;34.95;102317.94;5124426;28;20051;-31
2022/03/20 07:50:48;;;;;;;0.20;0.20;;;;;;;20.52;35.15;102308.53;5123165;28;20122;-29
2022/03/20 07:53:16;;;;;;;0.20;0.20;;;;;;;20.51;35.10;102303.25;5124811;28;20070;-30
2022/03/20 07:55:42;;;;;;;0.20;0.20;;;;;;;20.51;35.10;102306.84;5125179;28;20463;-29
2022/03/20 07:58:07;;;;;;;0.20;0.20;;;;;;;20.51;35.21;102303.25;5123715;28;20053;-31
2022/03/20 08:00:33;;;;;;;0.20;0.20;;;;;;;20.52;35.10;102296.63;5126362;28;20044;-32
2022/03/20 08:03:00;;;;;;;0.20;0.20;;;;;;;20.51;35.15;102297.72;5128149;27;20168;-32
2022/03/20 08:05:27;;;;;;;0.15;0.15;;;;;;;20.50;35.11;102291.31;5126115;28;20039;-32
2022/03/20 08:07:52;;;;;;;0.20;0.20;;;;;;;20.51;35.28;102301.31;5122783;28;20172;-32
2022/03/20 08:10:18;;;;;;;0.20;0.20;;;;;;;20.50;35.18;102290.47;5124562;28;20051;-33
2022/03/20 08:12:44;;;;;;;0.20;0.20;;;;;;;20.52;35.19;102291.09;5127224;28;20095;-33
2022/03/20 08:15:10;;;;;;;0.20;0.20;;;;;;;20.52;35.17;102274.47;5110227;28;20081;-31
2022/03/20 08:17:44;;;;;;;0.20;0.20;;;;;;;20.51;35.09;102284.72;5123931;28;20101;-30
2022/03/20 08:20:11;;;;;;;0.20;0.20;;;;;;;20.51;34.89;102293.00;5120030;28;20074;-29
2022/03/20 08:22:37;;;;;;;0.10;0.10;;;;;;;20.51;35.01;102292.19;5112955;28;20040;-31
2022/03/20 08:25:03;;;;;;;0.20;0.20;;;;;;;20.52;34.95;102282.78;5123868;28;20047;-31
2022/03/20 08:27:29;;;;;;;0.10;0.10;;;;;;;20.52;34.92;102285.53;5114550;28;20066;-32
2022/03/20 08:29:57;;;;;;;0.20;0.20;;;;;;;20.51;34.93;102276.41;5121753;28;20059;-31
2022/03/20 08:32:24;;;;;;;0.20;0.20;;;;;;;20.51;35.08;102278.34;5119595;28;20094;-31
2022/03/20 08:34:50;;;;;;;0.20;0.20;;;;;;;20.49;35.23;102286.88;5118178;28;20181;-34
2022/03/20 08:37:16;;;;;;;0.20;0.20;;;;;;;20.51;34.92;102287.47;5120618;28;20455;-31
2022/03/20 08:39:41;;;;;;;0.20;0.20;;;;;;;20.50;35.17;102282.19;5124549;28;20079;-31
2022/03/20 08:42:07;;;;;;;0.20;0.20;;;;;;;20.50;35.24;102291.31;5120411;28;20046;-32
2022/03/20 08:44:33;;;;;;;0.20;0.20;;;;;;;20.50;34.87;102280.25;5126200;28;20603;-33
2022/03/20 08:46:59;;;;;;;0.20;0.20;;;;;;;20.51;35.01;102281.13;5114615;28;20775;-32
2022/03/20 08:49:24;;;;;;;0.20;0.20;;;;;;;20.50;34.92;102268.34;5122349;28;20111;-31
2022/03/20 08:51:50;;;;;;;0.10;0.10;;;;;;;20.50;35.28;102271.94;5120795;28;20081;-30
2022/03/20 08:54:16;;;;;;;0.20;0.20;;;;;;;20.50;35.04;102266.41;5125599;28;20047;-33
2022/03/20 08:56:41;;;;;;;0.20;0.20;;;;;;;20.49;35.28;102274.97;5120683;28;20389;-33
2022/03/20 08:59:07;;;;;;;0.20;0.20;;;;;;;20.50;35.06;102280.25;5126512;28;20103;-32
2022/03/20 09:01:33;;;;;;;0.20;0.20;;;;;;;20.50;35.04;102293.25;5114804;28;20042;-31
2022/03/20 09:04:00;;;;;;;0.15;0.15;;;;;;;20.51;34.96;102289.41;5125530;28;20039;-33
2022/03/20 09:06:26;;;;;;;0.20;0.20;;;;;;;20.51;35.15;102270.88;5126892;28;20066;-32
2022/03/20 09:08:53;;;;;;;0.20;0.20;;;;;;;20.50;34.98;102271.94;5121899;28;20390;-32
2022/03/20 09:11:19;;;;;;;0.20;0.20;;;;;;;20.49;35.01;102275.81;5111379;28;20082;-31
2022/03/20 09:13:45;;;;;;;0.10;0.10;;;;;;;20.50;35.11;102287.72;5124730;28;20047;-31
2022/03/20 09:19:00;;;;;;;0.20;0.20;;;;;;;20.50;34.86;102274.72;5106725;28;20115;-33
2022/03/20 09:21:27;;;;;;;0.20;0.20;;;;;;;20.49;34.99;102274.97;5124850;27;20142;-32
2022/03/20 09:23:53;;;;;;;0.20;0.20;;;;;;;20.49;35.04;102273.06;5123406;28;20092;-31
2022/03/20 09:26:19;;;;;;;0.20;0.20;;;;;;;20.50;34.94;102273.88;5124915;28;20284;-31
2022/03/20 09:28:45;;;;;;;0.20;0.20;;;;;;;20.49;35.08;102278.59;5124086;28;20047;-34
2022/03/20 09:31:11;;;;;;;0.20;0.20;;;;;;;20.50;34.91;102268.34;5121702;28;20130;-31
2022/03/20 09:33:37;;;;;;;0.20;0.20;;;;;;;20.49;34.87;102273.06;5124023;28;20051;-31
2022/03/20 09:36:03;;;;;;;0.20;0.20;;;;;;;20.50;35.21;102263.66;5121226;28;20091;-31
2022/03/20 09:38:29;;;;;;;0.20;0.20;;;;;;;20.50;35.10;102269.19;5122118;27;20082;-32
2022/03/20 09:40:56;;;;;;;0.20;0.20;;;;;;;20.49;34.95;102256.44;5121331;28;20131;-33
2022/03/20 09:43:22;;;;;;;0.20;0.20;;;;;;;20.49;35.10;102264.75;5121982;28;20070;-31
2022/03/20 09:45:48;;;;;;;0.20;0.20;;;;;;;20.50;34.74;102265.56;5122179;28;20046;-31
2022/03/20 09:48:15;;;;;;;0.20;0.20;;;;;;;20.49;35.00;102253.69;5103759;28;20125;-31
2022/03/20 09:50:42;;;;;;;0.20;0.20;;;;;;;20.50;34.98;102271.13;5120618;28;20478;-32
2022/03/20 09:53:08;;;;;;;0.20;0.20;;;;;;;20.49;34.93;102264.75;5120912;28;20106;-31
2022/03/20 09:55:35;;;;;;;0.20;0.20;;;;;;;20.49;34.82;102264.75;5124415;28;20043;-32
2022/03/20 09:58:00;;;;;;;0.20;0.20;;;;;;;20.51;35.06;102264.50;5121526;28;20399;-33
2022/03/20 10:00:26;;;;;;;0.20;0.20;;;;;;;20.50;35.11;102265.56;5126185;28;20043;-30
2022/03/20 10:02:52;;;;;;;0.20;0.20;;;;;;;20.50;34.88;102273.88;5124350;28;20039;-29
2022/03/20 10:05:20;;;;;;;0.20;0.20;;;;;;;20.48;35.12;102276.09;5123756;27;20051;-32
2022/03/20 10:07:46;;;;;;;0.20;0.20;;;;;;;20.49;35.10;102267.50;5123490;28;20062;-32
2022/03/20 10:10:17;;;;;;;0.20;0.20;;;;;;;20.50;35.16;102265.56;5107261;28;21107;-31
2022/03/20 10:12:49;;;;;;;0.20;0.20;;;;;;;20.49;35.07;102264.75;5122830;28;20082;-33
2022/03/20 10:15:36;;;;;;;0.20;0.20;;;;;;;20.49;35.08;102261.16;5087908;28;20061;-31
2022/03/20 10:18:20;;;;;;;0.20;0.20;;;;;;;20.50;34.88;102260.03;5116175;27;20051;-32
2022/03/20 10:20:50;;;;;;;0.10;0.10;;;;;;;20.49;35.04;102261.97;5109681;28;20074;-32
2022/03/20 10:23:34;;;;;;;0.20;0.20;;;;;;;20.49;35.23;102253.69;5120609;28;20083;-31
2022/03/20 10:26:04;;;;;;;0.20;0.20;;;;;;;20.49;34.79;102261.97;5103285;28;20082;-34
2022/03/20 10:28:35;;;;;;;0.20;0.20;;;;;;;20.49;35.21;102252.84;5111537;28;20550;-33
2022/03/20 10:31:03;;;;;;;0.20;0.20;;;;;;;20.49;34.88;102245.38;5123362;28;20078;-31
2022/03/20 10:33:28;;;;;;;0.20;0.20;;;;;;;20.49;34.85;102245.38;5122926;28;20067;-29
2022/03/20 10:36:18;;;;;;;0.20;0.20;;;;;;;20.49;34.96;102236.25;5119890;28;20695;-31
2022/03/20 10:38:45;;;;;;;0.10;0.10;;;;;;;20.50;34.94;102243.44;5109325;28;20091;-32
2022/03/20 10:41:34;;;;;;;0.20;0.20;;;;;;;20.49;35.12;102241.78;5121901;28;20035;-29
2022/03/20 10:44:20;;;;;;;0.20;0.20;;;;;;;20.48;35.10;102243.72;5120986;28;20081;-31
2022/03/20 10:47:16;;;;;;;0.20;0.20;;;;;;;20.50;35.04;102243.44;5107600;28;20078;-33
2022/03/20 10:49:46;;;;;;;0.20;0.20;;;;;;;20.50;35.23;102232.38;5119752;27;20074;-30
2022/03/20 10:52:18;;;;;;;0.20;0.20;;;;;;;20.49;34.99;102242.59;5128427;28;20139;-31
2022/03/20 10:54:46;;;;;;;0.20;0.20;;;;;;;20.49;34.86;102244.53;5127582;28;20089;-32
2022/03/20 10:57:14;;;;;;;0.20;0.20;;;;;;;20.49;35.13;102233.47;5096037;28;20071;-31
2022/03/20 10:59:40;;;;;;;0.20;0.20;;;;;;;20.49;35.17;102239.00;5117583;28;20411;-31
2022/03/20 11:02:20;;;;;;;0.20;0.20;;;;;;;20.50;35.15;102233.22;5128167;28;20505;-31
2022/03/20 11:04:45;;;;;;;0.13;0.13;;;;;;;20.50;35.15;102237.91;5131159;27;20043;-32
2022/03/20 11:07:16;;;;;;;0.20;0.20;;;;;;;20.50;35.11;102221.31;5126773;28;20043;-32
2022/03/20 11:09:46;;;;;;;0.20;0.20;;;;;;;20.49;35.15;102231.53;5121374;28;20071;-31
2022/03/20 11:12:15;;;;;;;0.20;0.20;;;;;;;20.49;35.04;102220.47;5090789;28;20075;-31
2022/03/20 11:14:42;;;;;;;0.20;0.20;;;;;;;20.49;35.07;102227.94;5110527;28;20484;-31
2022/03/20 11:17:08;;;;;;;0.15;0.15;;;;;;;20.49;35.04;102233.47;5125378;28;20071;-31
2022/03/20 11:19:35;;;;;;;0.20;0.20;;;;;;;20.48;35.11;102224.34;5127152;28;20081;-32
2022/03/20 11:22:04;;;;;;;0.20;0.20;;;;;;;20.48;35.11;102232.63;5122507;28;20308;-32
2022/03/20 11:24:30;;;;;;;0.20;0.20;;;;;;;20.50;35.03;102249.81;5125135;28;21282;-31
2022/03/20 11:27:00;;;;;;;0.20;0.20;;;;;;;20.49;34.88;102245.38;5126263;28;20051;-33
2022/03/20 11:29:27;;;;;;;0.20;0.20;;;;;;;20.49;35.10;102242.59;5124288;28;20125;-33
2022/03/20 11:31:53;;;;;;;0.10;0.10;;;;;;;20.50;35.32;102249.81;5121744;28;20104;-31
2022/03/20 11:34:19;;;;;;;0.20;0.20;;;;;;;20.48;35.03;102240.94;5123252;28;20043;-34
2022/03/20 11:37:07;;;;;;;0.20;0.20;;;;;;;20.50;35.13;102229.59;5125530;28;20046;-30
2022/03/20 11:39:33;;;;;;;;;;;;;;;20.50;34.95;102226.84;5102601;28;20051;-32
2022/03/20 11:42:22;;;;;;;0.20;0.20;;;;;;;20.49;35.27;102227.94;5106802;28;20344;-31
2022/03/20 11:47:44;;;;;;;0.20;0.20;;;;;;;20.48;35.20;102207.72;5159283;27;20217;-29
2022/03/20 11:50:22;;;;;;;0.10;0.10;;;;;;;20.49;35.00;102205.81;5154674;27;20088;-33
2022/03/20 11:53:03;;;;;;;0.13;0.13;;;;;;;20.49;35.27;102203.03;5159605;27;20082;-31
2022/03/20 11:55:34;;;;;;;0.20;0.20;;;;;;;20.49;35.00;102203.03;5141145;27;20561;-32
2022/03/20 11:58:05;;;;;;;0.20;0.20;;;;;;;20.48;35.18;102204.13;5163152;27;20042;-31
2022/03/20 12:00:33;;;;;;;0.10;0.10;;;;;;;20.48;35.26;102218.81;5137760;27;20111;-31
2022/03/20 12:03:21;;;;;;;0.20;0.20;;;;;;;20.48;34.99;102224.34;5144625;27;20043;-32
2022/03/20 12:06:14;;;;;;;0.20;0.20;;;;;;;20.49;35.03;102219.63;5142359;27;20199;-35
2022/03/20 12:08:51;;;;;;;0.20;0.20;;;;;;;20.49;35.04;102214.94;5126564;27;20070;-31
2022/03/20 12:14:41;;;;;;;0.30;0.30;;;;;;;20.48;35.03;102213.28;5154556;27;20803;-29
2022/03/20 12:17:08;;;;;;;0.20;0.20;;;;;;;20.47;35.13;102214.34;5126595;27;20071;-29